createdAt,value
2019-01-11T00:00:21.399Z,297.10
2019-01-11T00:02:50.758Z,352.17
2019-01-11T00:05:18.215Z,312.90
2019-01-11T00:07:45.692Z,338.80
2019-01-11T00:10:13.280Z,321.87
2019-01-11T00:12:40.783Z,336.30
2019-01-11T00:15:08.458Z,308.73
2019-01-11T00:17:35.990Z,333.67
2019-01-11T00:20:05.245Z,307.60
2019-01-11T00:22:32.738Z,362.43
2019-01-11T00:25:00.204Z,302.63
2019-01-11T00:27:27.855Z,333.40
2019-01-11T00:29:55.494Z,316.40
2019-01-11T00:32:22.916Z,346.20
2019-01-11T00:34:55.529Z,308.23
2019-01-11T00:37:23.187Z,365.27
2019-01-11T00:39:52.716Z,316.40
2019-01-11T00:42:20.254Z,346.03
2019-01-11T00:44:47.746Z,320.37
2019-01-11T00:47:15.578Z,352.23
2019-01-11T00:49:43.097Z,297.20
2019-01-11T00:52:10.749Z,338.03
2019-01-11T00:54:38.327Z,322.40
2019-01-11T00:57:05.966Z,306.93
2019-01-11T00:59:33.479Z,309.90
2019-01-11T01:02:01.131Z,303.27
2019-01-11T01:04:28.609Z,301.07
2019-01-11T01:06:56.106Z,317.37
2019-01-11T01:09:23.619Z,314.47
2019-01-11T01:11:51.364Z,317.60
2019-01-11T01:14:18.967Z,313.50
2019-01-11T01:16:46.472Z,303.57
2019-01-11T01:19:19.893Z,300.27
2019-01-11T01:24:40.322Z,311.63
2019-01-11T01:27:07.882Z,350.27
2019-01-11T01:29:35.443Z,307.90
2019-01-11T01:32:03.205Z,318.70
2019-01-11T01:34:30.690Z,313.07
2019-01-11T01:36:58.289Z,369.47
2019-01-11T01:39:25.877Z,302.90
2019-01-11T01:41:53.412Z,299.60
2019-01-11T01:44:21.091Z,316.50
2019-01-11T01:46:48.933Z,309.80
2019-01-11T01:49:16.316Z,314.63
2019-01-11T01:51:43.967Z,280.90
2019-01-11T01:54:13.077Z,318.23
2019-01-11T01:56:41.445Z,366.80
2019-01-11T01:59:08.977Z,297.30
2019-01-11T02:01:36.550Z,308.20
2019-01-11T02:04:04.351Z,331.90
2019-01-11T02:06:31.950Z,321.07
2019-01-11T02:08:59.611Z,312.60
2019-01-11T02:11:27.324Z,316.40
2019-01-11T02:13:54.700Z,292.63
2019-01-11T02:16:25.099Z,314.60
2019-01-11T02:18:52.706Z,321.93
2019-01-11T02:21:20.414Z,293.53
2019-01-11T02:23:50.137Z,292.53
2019-01-11T02:26:17.659Z,313.63
2019-01-11T02:28:45.248Z,301.80
2019-01-11T02:31:12.784Z,308.93
2019-01-11T02:33:40.173Z,293.83
2019-01-11T02:36:07.832Z,309.17
2019-01-11T02:38:35.384Z,316.77
2019-01-11T02:41:03.150Z,297.53
2019-01-11T02:43:30.645Z,306.70
2019-01-11T02:45:58.160Z,310.60
2019-01-11T02:48:25.851Z,295.23
2019-01-11T02:50:53.282Z,334.53
2019-01-11T02:53:20.704Z,332.30
2019-01-11T02:55:48.302Z,313.50
2019-01-11T02:58:15.787Z,342.37
2019-01-11T03:00:43.412Z,308.57
2019-01-11T03:03:11.794Z,306.90
2019-01-11T03:05:39.416Z,299.30
2019-01-11T03:08:06.862Z,330.43
2019-01-11T03:10:35.090Z,303.87
2019-01-11T03:13:02.858Z,315.83
2019-01-11T03:15:31.337Z,306.87
2019-01-11T03:17:58.913Z,325.23
2019-01-11T03:20:26.549Z,314.67
2019-01-11T03:22:54.043Z,328.87
2019-01-11T03:25:21.575Z,313.73
2019-01-11T03:27:51.063Z,366.70
2019-01-11T03:30:19.720Z,308.80
2019-01-11T03:32:47.502Z,382.93
2019-01-11T03:35:16.193Z,301.30
2019-01-11T03:37:47.005Z,339.33
2019-01-11T03:40:16.027Z,290.60
2019-01-11T03:42:43.611Z,328.43
2019-01-11T03:45:14.591Z,302.47
2019-01-11T03:47:42.362Z,327.53
2019-01-11T03:50:10.497Z,303.67
2019-01-11T03:52:38.236Z,325.50
2019-01-11T03:55:08.355Z,301.70
2019-01-11T03:57:36.167Z,310.77
2019-01-11T04:00:10.595Z,319.73
2019-01-11T04:02:38.212Z,301.33
2019-01-11T04:05:06.475Z,282.53
2019-01-11T04:07:34.128Z,302.70
2019-01-11T04:10:01.599Z,268.37
2019-01-11T04:12:28.984Z,322.83
2019-01-11T04:14:56.614Z,280.97
2019-01-11T04:17:24.094Z,316.33
2019-01-11T04:19:51.689Z,297.00
2019-01-11T04:22:25.748Z,312.67
2019-01-11T04:25:12.754Z,287.23
2019-01-11T04:27:40.840Z,316.27
2019-01-11T04:30:14.416Z,277.50
2019-01-11T04:32:41.848Z,314.10
2019-01-11T04:35:09.741Z,297.30
2019-01-11T04:37:37.435Z,321.23
2019-01-11T04:40:05.678Z,290.73
2019-01-11T04:42:33.031Z,336.03
2019-01-11T04:45:00.482Z,272.10
2019-01-11T04:47:27.835Z,296.47
2019-01-11T04:49:55.317Z,279.37
2019-01-11T04:52:22.736Z,327.03
2019-01-11T04:54:50.215Z,287.17
2019-01-11T04:57:17.566Z,303.20
2019-01-11T04:59:45.152Z,289.37
2019-01-11T05:02:12.861Z,300.00
2019-01-11T05:04:40.481Z,265.17
2019-01-11T05:07:07.920Z,312.23
2019-01-11T05:09:35.372Z,274.13
2019-01-11T05:12:03.021Z,280.37
2019-01-11T05:14:30.574Z,265.63
2019-01-11T05:16:58.104Z,282.83
2019-01-11T05:19:25.964Z,261.87
2019-01-11T05:21:53.358Z,283.93
2019-01-11T05:24:24.582Z,326.50
2019-01-11T05:26:52.655Z,273.13
2019-01-11T05:29:20.025Z,284.00
2019-01-11T05:31:47.493Z,276.73
2019-01-11T05:34:14.845Z,289.97
2019-01-11T05:36:42.378Z,257.17
2019-01-11T05:39:10.001Z,268.60
2019-01-11T05:41:37.394Z,264.27
2019-01-11T05:44:05.300Z,256.53
2019-01-11T05:46:32.739Z,255.47
2019-01-11T05:49:00.381Z,270.17
2019-01-11T05:51:27.742Z,266.10
2019-01-11T05:53:55.208Z,277.97
2019-01-11T05:56:22.862Z,271.33
2019-01-11T05:58:56.524Z,257.73
2019-01-11T06:01:23.991Z,273.63
2019-01-11T06:03:51.584Z,268.03
2019-01-11T06:06:18.890Z,271.90
2019-01-11T06:08:46.233Z,256.67
2019-01-11T06:11:13.627Z,265.50
2019-01-11T06:13:41.106Z,255.90
2019-01-11T06:16:08.845Z,247.10
2019-01-11T06:18:36.365Z,242.77
2019-01-11T06:21:04.051Z,272.50
2019-01-11T06:23:31.570Z,277.10
2019-01-11T06:26:02.015Z,241.60
2019-01-11T06:28:29.347Z,250.63
2019-01-11T06:30:56.951Z,278.70
2019-01-11T06:33:25.299Z,262.03
2019-01-11T06:35:52.772Z,257.40
2019-01-11T06:38:20.599Z,267.20
2019-01-11T06:40:48.145Z,262.60
2019-01-11T06:43:15.579Z,280.37
2019-01-11T06:45:43.950Z,261.77
2019-01-11T06:48:26.341Z,275.97
2019-01-11T06:50:53.720Z,243.93
2019-01-11T06:53:21.582Z,255.10
2019-01-11T06:55:48.951Z,258.20
2019-01-11T06:58:17.051Z,274.07
2019-01-11T07:00:44.451Z,268.90
2019-01-11T07:03:11.926Z,306.47
2019-01-11T07:05:42.068Z,254.53
2019-01-11T07:08:09.864Z,269.17
2019-01-11T07:10:38.871Z,252.93
2019-01-11T07:13:06.750Z,263.97
2019-01-11T07:15:35.242Z,212.40
2019-01-11T07:18:03.009Z,310.87
2019-01-11T07:20:32.361Z,271.77
2019-01-11T07:23:00.010Z,272.97
2019-01-11T07:25:27.454Z,325.30
2019-01-11T07:28:00.320Z,301.13
2019-01-11T07:30:37.035Z,304.87
2019-01-11T07:33:06.435Z,307.63
2019-01-11T07:35:53.640Z,277.03
2019-01-11T07:38:22.000Z,283.13
2019-01-11T07:40:49.486Z,288.80
2019-01-11T07:43:16.872Z,265.53
2019-01-11T07:45:44.865Z,263.27
2019-01-11T07:48:15.875Z,264.23
2019-01-11T07:50:49.284Z,251.67
2019-01-11T07:53:14.651Z,300.87
2019-01-11T07:55:42.168Z,270.13
2019-01-11T07:58:09.550Z,290.33
2019-01-11T08:00:36.991Z,272.20
2019-01-11T08:03:04.608Z,307.83
2019-01-11T08:05:32.023Z,280.50
2019-01-11T08:07:59.697Z,312.37
2019-01-11T08:10:27.336Z,288.43
2019-01-11T08:12:54.845Z,319.83
2019-01-11T08:15:23.887Z,289.47
2019-01-11T08:17:51.641Z,323.77
2019-01-11T08:20:20.726Z,272.20
2019-01-11T08:22:48.514Z,327.53
2019-01-11T08:25:16.497Z,270.70
2019-01-11T08:27:44.464Z,321.87
2019-01-11T08:30:13.519Z,283.53
2019-01-11T08:32:41.110Z,305.83
2019-01-11T08:35:09.567Z,279.63
2019-01-11T08:37:37.052Z,326.43
2019-01-11T08:40:05.981Z,271.83
2019-01-11T08:42:33.786Z,335.43
2019-01-11T08:45:01.473Z,273.47
2019-01-11T08:47:29.050Z,319.20
2019-01-11T08:49:56.555Z,293.77
2019-01-11T08:52:23.986Z,305.57
2019-01-11T08:54:51.524Z,274.33
2019-01-11T08:57:19.031Z,334.33
2019-01-11T08:59:46.369Z,331.30
2019-01-11T09:02:13.821Z,319.73
2019-01-11T09:04:41.972Z,304.80
2019-01-11T09:07:09.885Z,291.67
2019-01-11T09:09:37.373Z,327.90
2019-01-11T09:12:04.927Z,303.00
2019-01-11T09:14:48.171Z,308.47
2019-01-11T09:17:16.928Z,342.07
2019-01-11T09:19:44.456Z,289.77
2019-01-11T09:22:12.062Z,335.13
2019-01-11T09:24:40.529Z,308.70
2019-01-11T09:27:08.031Z,328.47
2019-01-11T09:29:35.417Z,300.03
2019-01-11T09:32:03.214Z,304.70
2019-01-11T09:34:30.547Z,307.87
2019-01-11T09:36:58.074Z,285.80
2019-01-11T09:39:26.758Z,311.17
2019-01-11T09:41:54.101Z,299.97
2019-01-11T09:44:21.596Z,299.73
2019-01-11T09:46:49.220Z,329.83
2019-01-11T09:49:16.643Z,315.33
2019-01-11T09:51:45.488Z,294.17
2019-01-11T09:54:13.062Z,337.07
2019-01-11T09:56:40.711Z,291.70
2019-01-11T09:59:08.090Z,290.27
2019-01-11T10:01:35.442Z,292.77
2019-01-11T10:04:03.137Z,294.53
2019-01-11T10:06:32.553Z,291.07
2019-01-11T10:08:59.909Z,298.80
2019-01-11T10:11:27.452Z,301.00
2019-01-11T10:13:54.893Z,291.53
2019-01-11T10:16:23.789Z,303.53
2019-01-11T10:18:51.204Z,311.40
2019-01-11T10:21:22.135Z,284.83
2019-01-11T10:23:47.953Z,287.63
2019-01-11T10:26:15.487Z,282.83
2019-01-11T10:28:42.853Z,289.10
2019-01-11T10:31:10.442Z,291.17
2019-01-11T10:33:37.758Z,270.00
2019-01-11T10:36:05.605Z,286.10
2019-01-11T10:38:33.008Z,268.90
2019-01-11T10:41:05.424Z,275.00
2019-01-11T10:43:33.051Z,285.97
2019-01-11T10:46:02.284Z,281.63
2019-01-11T10:48:29.740Z,296.27
2019-01-11T10:50:57.370Z,284.27
2019-01-11T10:53:24.972Z,287.73
2019-01-11T10:55:52.800Z,284.47
2019-01-11T10:58:20.350Z,275.10
2019-01-11T11:00:48.042Z,282.17
2019-01-11T11:03:15.395Z,288.63
2019-01-11T11:05:42.919Z,315.80
2019-01-11T11:08:10.651Z,289.60
2019-01-11T11:10:38.079Z,275.77
2019-01-11T11:13:05.660Z,369.27
2019-01-11T11:15:33.119Z,310.87
2019-01-11T11:18:00.648Z,327.20
2019-01-11T11:20:28.002Z,328.30
2019-01-11T11:22:55.473Z,361.40
2019-01-11T11:25:22.984Z,336.97
2019-01-11T11:27:50.318Z,358.80
2019-01-11T11:30:19.748Z,327.60
2019-01-11T11:32:57.742Z,345.57
2019-01-11T11:35:26.977Z,328.60
2019-01-11T11:37:54.759Z,355.37
2019-01-11T11:40:22.663Z,327.63
2019-01-11T11:42:50.045Z,353.77
2019-01-11T11:45:17.614Z,330.60
2019-01-11T11:47:47.180Z,376.50
2019-01-11T11:50:14.783Z,301.90
2019-01-11T11:52:42.333Z,334.97
2019-01-11T11:55:10.076Z,307.97
2019-01-11T11:57:38.588Z,343.37
2019-01-11T12:00:11.032Z,284.80
2019-01-11T12:02:38.628Z,322.87
2019-01-11T12:05:06.430Z,318.97
2019-01-11T12:07:33.800Z,337.67
2019-01-11T12:10:01.569Z,301.03
2019-01-11T12:12:28.919Z,338.87
2019-01-11T12:14:58.382Z,338.63
2019-01-11T12:17:26.015Z,337.73
2019-01-11T12:19:57.041Z,318.57
2019-01-11T12:22:22.747Z,359.93
2019-01-11T12:24:50.151Z,313.27
2019-01-11T12:27:18.495Z,348.57
2019-01-11T12:29:45.886Z,299.53
2019-01-11T12:32:19.424Z,350.57
2019-01-11T12:34:42.684Z,287.50
2019-01-11T12:37:10.023Z,344.80
2019-01-11T12:39:37.349Z,324.40
2019-01-11T12:42:04.900Z,326.93
2019-01-11T12:44:32.243Z,317.13
2019-01-11T12:46:59.572Z,335.57
2019-01-11T12:49:28.702Z,294.50
2019-01-11T12:51:56.228Z,336.80
2019-01-11T12:54:23.843Z,294.03
2019-01-11T12:56:51.238Z,312.77
2019-01-11T12:59:18.557Z,352.70
2019-01-11T13:01:46.239Z,300.93
2019-01-11T13:04:13.718Z,305.73
2019-01-11T13:06:41.173Z,313.67
2019-01-11T13:09:08.651Z,310.50
2019-01-11T13:11:36.199Z,320.73
2019-01-11T13:14:03.888Z,328.57
2019-01-11T13:16:31.277Z,318.47
2019-01-11T13:18:58.819Z,336.43
2019-01-11T13:21:26.303Z,323.13
2019-01-11T13:23:53.639Z,306.30
2019-01-11T13:26:21.117Z,320.07
2019-01-11T13:28:48.655Z,333.37
2019-01-11T13:31:21.632Z,320.80
2019-01-11T13:33:49.071Z,333.07
2019-01-11T13:36:18.896Z,317.30
2019-01-11T13:38:46.640Z,317.33
2019-01-11T13:41:15.134Z,342.93
2019-01-11T13:43:42.576Z,327.57
2019-01-11T13:46:10.030Z,363.20
2019-01-11T13:48:37.603Z,357.70
2019-01-11T13:51:05.193Z,328.00
2019-01-11T13:53:35.345Z,342.37
2019-01-11T13:56:02.920Z,358.30
2019-01-11T13:58:30.494Z,337.97
2019-01-11T14:00:57.976Z,342.47
2019-01-11T14:03:25.347Z,344.03
2019-01-11T14:05:53.110Z,350.63
2019-01-11T14:08:20.595Z,353.07
2019-01-11T14:10:48.075Z,361.00
2019-01-11T14:13:15.958Z,313.63
2019-01-11T14:15:54.824Z,328.77
2019-01-11T14:18:23.145Z,354.30
2019-01-11T14:20:51.743Z,340.83
2019-01-11T14:23:19.934Z,350.70
2019-01-11T14:25:47.543Z,353.30
2019-01-11T14:28:15.180Z,358.50
2019-01-11T14:30:43.065Z,355.80
2019-01-11T14:33:10.789Z,360.97
2019-01-11T14:35:39.641Z,416.33
2019-01-11T14:38:07.332Z,374.50
2019-01-11T14:40:35.078Z,372.67
2019-01-11T14:43:04.250Z,380.27
2019-01-11T14:45:31.721Z,353.47
2019-01-11T14:47:59.147Z,389.50
2019-01-11T14:50:26.818Z,378.30
2019-01-11T14:52:54.918Z,387.83
2019-01-11T14:55:22.366Z,394.13
2019-01-11T14:57:49.895Z,404.50
2019-01-11T15:00:22.370Z,370.50
2019-01-11T15:02:50.181Z,394.13
2019-01-11T15:05:18.397Z,378.93
2019-01-11T15:07:46.312Z,412.23
2019-01-11T15:10:14.247Z,382.33
2019-01-11T15:12:44.687Z,384.33
2019-01-11T15:15:20.848Z,349.70
2019-01-11T15:17:49.170Z,398.97
2019-01-11T15:20:33.291Z,367.70
2019-01-11T15:23:13.589Z,367.93
2019-01-11T15:25:44.186Z,369.47
2019-01-11T15:28:11.812Z,402.37
2019-01-11T15:30:39.489Z,357.20
2019-01-11T15:33:07.655Z,377.20
2019-01-11T15:35:35.770Z,386.53
2019-01-11T15:38:03.777Z,365.93
2019-01-11T15:40:36.918Z,364.33
2019-01-11T15:43:04.089Z,381.60
2019-01-11T15:45:31.677Z,372.73
2019-01-11T15:47:59.057Z,388.20
2019-01-11T15:50:54.574Z,394.57
2019-01-11T15:53:23.073Z,360.13
2019-01-11T15:55:55.234Z,355.30
2019-01-11T15:58:29.070Z,378.43
2019-01-11T16:00:56.685Z,347.00
2019-01-11T16:03:25.036Z,358.90
2019-01-11T16:06:40.594Z,372.30
2019-01-11T16:09:59.786Z,373.17
2019-01-11T16:12:53.334Z,373.53
2019-01-11T16:16:04.109Z,377.10
2019-01-11T16:18:32.353Z,365.97
2019-01-11T16:21:00.300Z,393.80
2019-01-11T16:23:28.042Z,389.97
2019-01-11T16:25:55.710Z,344.17
2019-01-11T16:28:23.582Z,373.60
2019-01-11T16:30:51.053Z,366.27
2019-01-11T16:33:18.582Z,375.87
2019-01-11T16:35:45.975Z,375.07
2019-01-11T16:38:14.411Z,401.60
2019-01-11T16:40:41.945Z,393.70
2019-01-11T16:43:09.539Z,381.67
2019-01-11T16:45:37.090Z,427.53
2019-01-11T16:48:04.562Z,416.33
2019-01-11T16:50:33.065Z,401.60
2019-01-11T16:53:01.330Z,409.00
2019-01-11T16:55:28.873Z,401.80
2019-01-11T16:57:56.874Z,429.63
2019-01-11T17:00:24.979Z,418.83
2019-01-11T17:02:52.422Z,389.30
2019-01-11T17:05:19.876Z,396.43
2019-01-11T17:07:47.380Z,416.00
2019-01-11T17:10:14.965Z,398.67
2019-01-11T17:12:42.787Z,390.77
2019-01-11T17:15:14.565Z,393.77
2019-01-11T17:17:42.753Z,428.57
2019-01-11T17:20:14.477Z,430.87
2019-01-11T17:22:42.437Z,456.63
2019-01-11T17:25:10.130Z,398.07
2019-01-11T17:27:38.255Z,428.03
2019-01-11T17:30:11.629Z,411.67
2019-01-11T17:32:39.653Z,433.33
2019-01-11T17:35:07.457Z,401.77
2019-01-11T17:37:34.903Z,453.20
2019-01-11T17:40:04.148Z,445.97
2019-01-11T17:42:31.667Z,465.17
2019-01-11T17:44:59.054Z,414.97
2019-01-11T17:47:26.667Z,437.60
2019-01-11T17:50:00.943Z,423.13
2019-01-11T17:52:23.539Z,442.57
2019-01-11T17:54:53.768Z,444.53
2019-01-11T17:57:21.426Z,466.33
2019-01-11T17:59:49.170Z,431.67
2019-01-11T18:02:17.104Z,457.77
2019-01-11T18:04:44.640Z,450.30
2019-01-11T18:07:12.520Z,468.27
2019-01-11T18:09:40.497Z,446.73
2019-01-11T18:12:20.077Z,438.80
2019-01-11T18:14:47.312Z,453.90
2019-01-11T18:17:14.881Z,477.40
2019-01-11T18:19:42.528Z,449.37
2019-01-11T18:22:10.343Z,483.67
2019-01-11T18:24:38.397Z,450.00
2019-01-11T18:27:06.490Z,454.43
2019-01-11T18:29:33.860Z,434.57
2019-01-11T18:32:03.001Z,436.63
2019-01-11T18:34:31.308Z,425.03
2019-01-11T18:36:58.889Z,444.53
2019-01-11T18:39:26.550Z,469.60
2019-01-11T18:41:54.108Z,436.57
2019-01-11T18:44:21.749Z,437.83
2019-01-11T18:46:49.159Z,436.03
2019-01-11T18:49:16.720Z,437.07
2019-01-11T18:51:44.245Z,421.97
2019-01-11T18:54:11.902Z,459.00
2019-01-11T18:56:39.559Z,436.23
2019-01-11T18:59:07.021Z,400.23
2019-01-11T19:01:34.403Z,434.13
2019-01-11T19:04:02.115Z,460.80
2019-01-11T19:06:29.474Z,414.73
2019-01-11T19:08:56.846Z,412.23
2019-01-11T19:11:24.513Z,441.30
2019-01-11T19:13:52.054Z,451.77
2019-01-11T19:16:19.907Z,444.20
2019-01-11T19:18:47.535Z,450.30
2019-01-11T19:21:17.088Z,448.97
2019-01-11T19:23:44.633Z,435.97
2019-01-11T19:26:12.464Z,447.70
2019-01-11T19:28:40.340Z,461.03
2019-01-11T19:31:07.969Z,442.93
2019-01-11T19:33:35.860Z,455.87
2019-01-11T19:36:05.028Z,455.87
2019-01-11T19:38:33.559Z,465.00
2019-01-11T19:41:01.326Z,466.80
2019-01-11T19:43:28.674Z,459.80
2019-01-11T19:45:56.419Z,485.30
2019-01-11T19:48:24.176Z,464.03
2019-01-11T19:50:51.657Z,467.17
2019-01-11T19:53:19.126Z,441.53
2019-01-11T19:55:46.808Z,453.00
2019-01-11T19:58:14.478Z,417.83
2019-01-11T20:00:42.082Z,486.57
2019-01-11T20:03:09.807Z,468.67
2019-01-11T20:05:37.405Z,439.13
2019-01-11T20:08:05.029Z,449.93
2019-01-11T20:10:33.388Z,448.93
2019-01-11T20:13:01.384Z,452.53
2019-01-11T20:15:29.543Z,451.70
2019-01-11T20:17:57.357Z,418.83
2019-01-11T20:20:25.482Z,418.40
2019-01-11T20:23:01.899Z,425.17
2019-01-11T20:25:24.880Z,424.23
2019-01-11T20:27:52.538Z,435.90
2019-01-11T20:30:23.471Z,402.83
2019-01-11T20:32:52.353Z,437.40
2019-01-11T20:35:20.260Z,412.97
2019-01-11T20:37:48.693Z,445.97
2019-01-11T20:40:16.860Z,433.50
2019-01-11T20:42:45.804Z,448.77
2019-01-11T20:45:16.687Z,416.63
2019-01-11T20:47:44.439Z,447.93
2019-01-11T20:50:15.902Z,402.83
2019-01-11T20:52:43.698Z,456.37
2019-01-11T20:55:11.287Z,444.37
2019-01-11T20:57:38.978Z,478.63
2019-01-11T21:00:13.407Z,426.83
2019-01-11T21:02:41.059Z,439.70
2019-01-11T21:05:09.034Z,430.97
2019-01-11T21:07:36.729Z,436.17
2019-01-11T21:10:05.439Z,420.77
2019-01-11T21:12:33.116Z,452.23
2019-01-11T21:15:01.951Z,425.37
2019-01-11T21:17:29.943Z,423.67
2019-01-11T21:19:57.562Z,410.87
2019-01-11T21:22:25.341Z,435.53
2019-01-11T21:24:59.888Z,392.33
2019-01-11T21:27:23.430Z,432.93
2019-01-11T21:29:51.095Z,407.60
2019-01-11T21:32:18.935Z,402.80
2019-01-11T21:34:46.611Z,364.67
2019-01-11T21:37:14.117Z,388.73
2019-01-11T21:39:41.903Z,351.50
2019-01-11T21:42:09.625Z,381.20
2019-01-11T21:44:37.380Z,348.40
2019-01-11T21:47:06.171Z,333.50
2019-01-11T21:49:33.827Z,296.67
2019-01-11T21:52:01.619Z,294.13
2019-01-11T21:54:30.457Z,305.23
2019-01-11T21:56:58.218Z,315.87
2019-01-11T21:59:25.881Z,285.80
2019-01-11T22:01:53.660Z,281.33
2019-01-11T22:04:21.337Z,331.67
2019-01-11T22:06:49.091Z,275.97
2019-01-11T22:09:16.589Z,269.70
2019-01-11T22:11:44.224Z,266.80
2019-01-11T22:14:11.839Z,297.07
2019-01-11T22:16:39.738Z,295.60
2019-01-11T22:19:07.409Z,318.37
2019-01-11T22:21:35.042Z,322.13
2019-01-11T22:24:03.296Z,309.03
2019-01-11T22:26:31.169Z,310.20
2019-01-11T22:28:58.972Z,302.20
2019-01-11T22:31:26.709Z,313.80
2019-01-11T22:33:54.194Z,295.17
2019-01-11T22:36:21.902Z,305.40
2019-01-11T22:38:49.333Z,258.33
2019-01-11T22:41:17.921Z,303.43
2019-01-11T22:43:45.483Z,263.53
2019-01-11T22:46:13.140Z,273.13
2019-01-11T22:48:42.028Z,292.63
2019-01-11T22:51:09.733Z,252.20
2019-01-11T22:53:37.384Z,295.03
2019-01-11T22:56:05.171Z,262.30
2019-01-11T22:58:32.889Z,285.60
2019-01-11T23:01:43.743Z,269.87
2019-01-11T23:04:11.229Z,275.00
2019-01-11T23:07:26.142Z,268.20
2019-01-11T23:10:19.865Z,258.97
2019-01-11T23:13:06.711Z,304.83
2019-01-11T23:15:41.062Z,269.37
2019-01-11T23:18:23.802Z,280.20
2019-01-11T23:21:03.855Z,277.43
2019-01-11T23:23:31.555Z,273.77
2019-01-11T23:25:59.025Z,244.00
2019-01-11T23:28:26.732Z,316.47
2019-01-11T23:30:54.295Z,251.17
2019-01-11T23:33:21.994Z,289.63
2019-01-11T23:35:50.504Z,269.23
2019-01-11T23:38:18.097Z,284.73
2019-01-11T23:40:45.585Z,257.83
2019-01-11T23:43:13.096Z,258.33
2019-01-11T23:45:40.739Z,268.23
2019-01-11T23:48:08.409Z,263.40
2019-01-11T23:50:36.005Z,249.70
2019-01-11T23:53:03.891Z,271.93
2019-01-11T23:55:31.561Z,289.50
2019-01-11T23:57:59.113Z,292.47
